Time;durP1;ratioP1;P1;durP2;ratioP2;P2;SDS_P1;SDS_P2;PMS_P1;PMS_P2;Temp;Humidity;BMP_temperature;BMP_pressure;BME280_temperature;BME280_humidity;BME280_pressure;Samples;Min_cycle;Max_cycle;Signal;HPM_P1;HPM_P2
2022/03/28 00:01:52;;;;;;;9.57;8.75;;;;;;;11.53;44.41;95884.09;5160535;27;20182;-67
2022/03/28 00:04:20;;;;;;;10.45;9.35;;;;;;;11.53;44.80;95884.09;5142379;27;20214;-67
2022/03/28 00:06:48;;;;;;;11.43;10.25;;;;;;;11.38;44.66;95876.44;5141899;27;20190;-66
2022/03/28 00:09:15;;;;;;;12.88;10.90;;;;;;;11.15;44.71;95878.75;5141977;27;20297;-65
2022/03/28 00:11:42;;;;;;;11.32;10.13;;;;;;;10.97;45.27;95883.59;5160630;27;20183;-65
2022/03/28 00:14:09;;;;;;;12.07;10.10;;;;;;;10.85;45.77;95878.78;5160428;27;20178;-65
2022/03/28 00:16:36;;;;;;;11.38;10.00;;;;;;;10.73;45.78;95881.47;5141896;27;20624;-65
2022/03/28 00:19:03;;;;;;;11.82;10.55;;;;;;;10.69;46.24;95880.53;5160110;27;20226;-65
2022/03/28 00:21:31;;;;;;;13.45;10.93;;;;;;;10.74;45.93;95883.06;5141559;27;20212;-65
2022/03/28 00:23:58;;;;;;;14.13;11.43;;;;;;;10.73;45.94;95875.94;5160076;27;20285;-65
2022/03/28 00:26:25;;;;;;;12.65;11.40;;;;;;;10.63;46.80;95870.81;5141647;27;20215;-65
2022/03/28 00:28:52;;;;;;;14.95;12.98;;;;;;;10.63;46.64;95865.28;5141710;27;20204;-65
2022/03/28 00:31:19;;;;;;;16.98;12.90;;;;;;;10.65;46.54;95867.75;5141424;27;20222;-66
2022/03/28 00:33:46;;;;;;;12.70;11.02;;;;;;;10.65;46.02;95863.03;5141925;27;20201;-66
2022/03/28 00:36:13;;;;;;;11.52;8.88;;;;;;;10.69;45.68;95861.22;5141882;27;20214;-66
2022/03/28 00:38:41;;;;;;;9.40;8.50;;;;;;;10.74;45.35;95863.75;5141475;27;20209;-66
2022/03/28 00:41:08;;;;;;;8.50;7.60;;;;;;;10.79;44.99;95857.25;5159924;27;20218;-66
2022/03/28 00:43:37;;;;;;;8.75;7.90;;;;;;;10.80;45.18;95856.91;5159545;27;20182;-66
2022/03/28 00:46:04;;;;;;;9.93;8.15;;;;;;;10.75;45.53;95856.31;5141499;27;20236;-66
2022/03/28 00:48:31;;;;;;;9.30;8.50;;;;;;;10.72;45.16;95856.97;5141559;27;20225;-66
2022/03/28 00:50:58;;;;;;;9.38;8.13;;;;;;;10.67;44.83;95851.66;5159211;27;20222;-67
2022/03/28 00:53:26;;;;;;;10.05;8.70;;;;;;;10.64;44.94;95847.63;5159199;27;20218;-67
2022/03/28 00:55:54;;;;;;;9.85;8.32;;;;;;;10.66;44.79;95845.31;5159152;27;20211;-66
2022/03/28 00:58:22;;;;;;;11.32;9.60;;;;;;;10.66;44.84;95852.78;5159463;27;20182;-66
2022/03/28 01:00:49;;;;;;;10.32;9.23;;;;;;;10.59;45.38;95859.63;5158103;27;20201;-66
2022/03/28 01:03:16;;;;;;;9.63;8.70;;;;;;;10.49;45.30;95860.00;5159578;27;20271;-66
2022/03/28 01:05:43;;;;;;;10.93;9.07;;;;;;;10.43;45.93;95858.63;5159176;27;20214;-66
2022/03/28 01:08:10;;;;;;;10.32;9.32;;;;;;;10.39;46.10;95857.66;5137356;27;20281;-66
2022/03/28 01:10:37;;;;;;;9.60;8.80;;;;;;;10.35;46.80;95863.03;5138377;27;20183;-67
2022/03/28 01:13:06;;;;;;;10.50;9.57;;;;;;;10.15;46.54;95852.72;5138417;27;20183;-67
2022/03/28 01:15:33;;;;;;;10.73;9.57;;;;;;;10.01;47.22;95854.88;5137994;27;20187;-67
2022/03/28 01:18:11;;;;;;;11.30;9.55;;;;;;;9.86;46.83;95851.50;5137055;27;20234;-67
2022/03/28 01:20:39;;;;;;;10.55;9.45;;;;;;;9.74;47.14;95847.84;5138061;27;20215;-67
2022/03/28 01:23:10;;;;;;;11.18;10.18;;;;;;;9.66;46.87;95849.50;5137364;27;20195;-67
2022/03/28 01:25:37;;;;;;;11.52;10.32;;;;;;;9.48;47.60;95851.47;5138056;27;20298;-67
2022/03/28 01:28:05;;;;;;;11.05;9.73;;;;;;;9.44;47.84;95855.19;5138071;27;20198;-67
2022/03/28 01:30:34;;;;;;;10.25;9.25;;;;;;;9.50;47.95;95849.19;5137188;27;20267;-67
2022/03/28 01:33:01;;;;;;;11.13;10.02;;;;;;;9.54;47.95;95844.63;5137639;27;20219;-66
2022/03/28 01:35:30;;;;;;;11.15;10.02;;;;;;;9.58;48.64;95847.53;5137410;27;20264;-66
2022/03/28 01:37:57;;;;;;;11.27;10.13;;;;;;;9.50;47.90;95851.94;5137511;27;20576;-66
2022/03/28 01:40:26;;;;;;;13.93;11.75;;;;;;;9.53;48.28;95848.53;5136697;27;20199;-67
2022/03/28 01:42:52;;;;;;;14.88;13.35;;;;;;;9.51;48.69;95845.28;5136767;27;20192;-65
2022/03/28 01:45:20;;;;;;;13.20;11.73;;;;;;;9.45;48.44;95843.06;5137742;27;20299;-66
2022/03/28 01:47:47;;;;;;;15.02;13.30;;;;;;;9.41;48.48;95840.13;5137130;27;20203;-66
2022/03/28 01:50:14;;;;;;;15.02;13.20;;;;;;;9.40;48.60;95842.09;5137720;27;20211;-65
2022/03/28 01:52:42;;;;;;;14.13;12.70;;;;;;;9.45;48.46;95846.59;5119497;27;20199;-66
2022/03/28 01:55:10;;;;;;;13.70;12.35;;;;;;;9.45;48.34;95852.13;5119509;27;20207;-66
2022/03/28 01:57:38;;;;;;;15.30;13.25;;;;;;;9.48;48.43;95842.41;5119666;27;20201;-66
2022/03/28 02:00:07;;;;;;;23.50;18.38;;;;;;;9.43;48.48;95853.56;5119618;27;20615;-66
2022/03/28 02:02:34;;;;;;;17.17;15.32;;;;;;;9.08;48.53;95843.41;5137056;27;20187;-67
2022/03/28 02:05:01;;;;;;;19.52;14.18;;;;;;;8.81;49.19;95851.97;5135995;27;20673;-67
2022/03/28 02:07:28;;;;;;;18.83;15.98;;;;;;;8.66;49.48;95851.31;5136232;27;20296;-67
2022/03/28 02:09:55;;;;;;;21.05;16.73;;;;;;;8.63;49.59;95848.38;5136102;27;20215;-67
2022/03/28 02:12:22;;;;;;;20.92;16.73;;;;;;;8.60;50.08;95849.84;5136213;27;20195;-67
2022/03/28 02:14:50;;;;;;;23.58;18.77;;;;;;;8.66;50.16;95851.31;5136236;27;20207;-67
2022/03/28 02:17:17;;;;;;;19.05;15.88;;;;;;;8.67;50.20;95852.13;5136147;27;20202;-67
2022/03/28 02:19:44;;;;;;;20.63;17.05;;;;;;;8.73;50.26;95848.09;5136079;27;20281;-67
2022/03/28 02:22:11;;;;;;;18.45;15.25;;;;;;;8.71;49.88;95855.03;5136761;27;20184;-67
2022/03/28 02:24:39;;;;;;;19.05;16.83;;;;;;;8.61;50.10;95853.41;5136041;27;20194;-67
2022/03/28 02:27:06;;;;;;;20.55;17.10;;;;;;;8.55;50.53;95841.75;5136824;27;20278;-67
2022/03/28 02:29:33;;;;;;;18.75;16.63;;;;;;;8.59;50.56;95850.97;5118980;27;20230;-66
2022/03/28 02:32:01;;;;;;;21.00;18.05;;;;;;;8.60;51.23;95849.84;5136716;27;20195;-65
2022/03/28 02:34:28;;;;;;;18.92;16.90;;;;;;;8.50;50.64;95863.09;5135933;27;20191;-66
2022/03/28 02:36:55;;;;;;;19.20;17.15;;;;;;;8.31;50.85;95852.34;5135794;27;20210;-66
2022/03/28 02:39:22;;;;;;;22.17;17.17;;;;;;;8.23;50.64;95850.38;5136612;27;20193;-66
2022/03/28 02:41:49;;;;;;;19.90;16.67;;;;;;;8.26;51.00;95847.00;5136669;27;20194;-68
2022/03/28 02:44:17;;;;;;;18.27;15.77;;;;;;;8.18;52.34;95859.59;5135745;27;20195;-68
2022/03/28 02:46:44;;;;;;;19.88;15.25;;;;;;;8.12;53.03;95855.34;5135230;27;20211;-68
2022/03/28 02:49:12;;;;;;;19.23;14.55;;;;;;;8.07;52.38;95861.00;5135989;27;20198;-69
2022/03/28 02:51:40;;;;;;;16.98;13.85;;;;;;;8.04;52.60;95861.63;5136525;27;20191;-69
2022/03/28 02:54:08;;;;;;;15.57;13.10;;;;;;;8.07;52.75;95859.06;5135348;27;20248;-68
2022/03/28 02:56:35;;;;;;;16.08;13.95;;;;;;;8.03;52.48;95858.06;5135803;27;20191;-66
2022/03/28 02:59:02;;;;;;;16.40;14.35;;;;;;;7.97;53.49;95862.88;5135410;27;20199;-66
2022/03/28 03:01:29;;;;;;;17.52;14.73;;;;;;;7.97;53.71;95865.63;5135098;27;20629;-65
2022/03/28 03:03:56;;;;;;;18.70;14.13;;;;;;;7.96;53.89;95865.97;5135596;27;20591;-66
2022/03/28 03:06:24;;;;;;;16.75;14.02;;;;;;;7.98;53.96;95871.94;5135487;27;20206;-66
2022/03/28 03:08:51;;;;;;;17.38;14.10;;;;;;;7.88;54.22;95872.22;5135141;27;20241;-66
2022/03/28 03:11:18;;;;;;;18.30;14.05;;;;;;;7.77;54.13;95879.09;5135359;27;20534;-66
2022/03/28 03:13:46;;;;;;;15.80;13.77;;;;;;;7.67;54.18;95875.50;5136264;27;20236;-66
2022/03/28 03:16:13;;;;;;;16.98;15.18;;;;;;;7.58;54.13;95871.91;5136210;27;20206;-66
2022/03/28 03:18:40;;;;;;;15.55;13.95;;;;;;;7.54;54.51;95870.09;5134882;28;20195;-66
2022/03/28 03:21:07;;;;;;;18.75;13.85;;;;;;;7.54;55.23;95861.88;5135385;28;20683;-66
2022/03/28 03:23:35;;;;;;;15.00;13.48;;;;;;;7.60;55.54;95872.41;5137680;27;20195;-66
2022/03/28 03:26:02;;;;;;;16.83;13.82;;;;;;;7.66;55.30;95873.91;5139138;27;20233;-66
2022/03/28 03:28:29;;;;;;;20.33;14.93;;;;;;;7.68;55.11;95873.56;5140372;27;20252;-66
2022/03/28 03:30:56;;;;;;;22.35;16.80;;;;;;;7.59;54.73;95869.97;5140289;27;20175;-66
2022/03/28 03:33:23;;;;;;;22.83;18.20;;;;;;;7.47;54.51;95879.59;5140000;27;20201;-66
2022/03/28 03:35:50;;;;;;;20.48;16.83;;;;;;;7.32;54.92;95887.41;5139431;27;20237;-64
2022/03/28 03:38:17;;;;;;;19.67;15.88;;;;;;;7.22;54.78;95888.44;5139370;27;20206;-65
2022/03/28 03:40:46;;;;;;;17.98;16.08;;;;;;;7.15;54.83;95877.09;5139103;27;20225;-65
2022/03/28 03:43:13;;;;;;;19.85;15.43;;;;;;;7.10;54.88;95883.53;5138897;27;20187;-65
2022/03/28 03:45:40;;;;;;;17.70;14.20;;;;;;;7.08;55.56;95879.47;5139180;27;20294;-66
2022/03/28 03:48:08;;;;;;;18.55;14.77;;;;;;;7.06;55.70;95884.47;5138917;27;20203;-66
2022/03/28 03:50:35;;;;;;;17.38;14.35;;;;;;;7.10;56.00;95886.25;5139621;27;20286;-66
2022/03/28 03:53:02;;;;;;;14.88;13.35;;;;;;;7.13;55.60;95884.84;5138974;27;20223;-65
2022/03/28 03:55:28;;;;;;;17.10;13.45;;;;;;;7.15;56.05;95894.41;5138802;27;20229;-65
2022/03/28 03:57:57;;;;;;;14.25;12.77;;;;;;;7.17;55.72;95892.13;5138998;27;20615;-65
2022/03/28 04:00:24;;;;;;;19.33;14.52;;;;;;;7.24;55.95;95892.50;5139469;27;20198;-65
2022/03/28 04:02:51;;;;;;;20.58;14.77;;;;;;;7.20;55.41;95887.97;5139279;27;20257;-66
2022/03/28 04:05:18;;;;;;;23.55;15.20;;;;;;;7.06;55.27;95892.69;5139386;27;20201;-65
2022/03/28 04:07:45;;;;;;;19.15;14.07;;;;;;;6.94;54.97;95885.03;5138787;27;20234;-66
2022/03/28 04:10:12;;;;;;;18.67;15.27;;;;;;;6.90;56.32;95890.31;5138765;27;20225;-66
2022/03/28 04:12:39;;;;;;;19.40;14.85;;;;;;;6.96;55.65;95882.75;5138792;27;20203;-66
2022/03/28 04:15:10;;;;;;;23.52;13.68;;;;;;;6.98;56.19;95888.75;5139558;27;20202;-66
2022/03/28 04:17:41;;;;;;;16.80;13.60;;;;;;;6.96;56.56;95899.22;5139268;27;20268;-67
2022/03/28 04:20:10;;;;;;;19.65;13.77;;;;;;;7.01;56.09;95888.16;5138624;27;20191;-67
2022/03/28 04:22:37;;;;;;;18.10;13.95;;;;;;;7.04;55.63;95892.19;5138903;27;20222;-67
2022/03/28 04:25:04;;;;;;;18.15;13.48;;;;;;;7.06;55.88;95890.75;5139471;27;20179;-67
2022/03/28 04:27:31;;;;;;;20.63;13.68;;;;;;;7.05;55.63;95894.63;5139077;27;20229;-67
2022/03/28 04:29:58;;;;;;;22.13;14.52;;;;;;;6.94;55.84;95899.53;5138449;27;20202;-67
2022/03/28 04:32:26;;;;;;;21.15;15.57;;;;;;;6.86;55.47;95897.53;5138397;27;20255;-66
2022/03/28 04:34:53;;;;;;;21.42;14.20;;;;;;;6.79;56.07;95897.16;5138651;27;20185;-66
2022/03/28 04:37:20;;;;;;;20.58;15.38;;;;;;;6.93;56.54;95895.16;5139037;27;20256;-66
2022/03/28 04:39:47;;;;;;;20.98;15.45;;;;;;;7.20;56.28;95887.97;5138704;27;20198;-66
2022/03/28 04:42:14;;;;;;;25.27;16.13;;;;;;;7.26;56.61;95888.63;5139124;27;20191;-66
2022/03/28 04:44:41;;;;;;;24.13;15.73;;;;;;;7.28;56.17;95886.41;5138538;27;20261;-66
2022/03/28 04:47:08;;;;;;;22.35;15.80;;;;;;;7.23;56.29;95892.84;5137890;27;20217;-66
2022/03/28 04:49:37;;;;;;;28.92;17.27;;;;;;;7.23;55.39;95899.13;5137866;27;20267;-67
2022/03/28 04:52:04;;;;;;;35.70;17.85;;;;;;;7.10;55.32;95885.47;5138664;27;20236;-67
2022/03/28 04:54:31;;;;;;;27.60;16.83;;;;;;;7.02;55.69;95892.50;5138784;27;20501;-67
2022/03/28 04:56:58;;;;;;;36.08;17.75;;;;;;;6.94;55.90;95887.75;5138404;27;20282;-67
2022/03/28 04:59:25;;;;;;;33.75;18.45;;;;;;;6.95;56.05;95890.19;5138541;27;20191;-67
2022/03/28 05:01:52;;;;;;;27.73;20.38;;;;;;;6.96;56.45;95880.00;5137963;27;20229;-66
2022/03/28 05:04:19;;;;;;;36.92;30.10;;;;;;;7.05;56.95;95889.16;5137709;27;20253;-66
2022/03/28 05:06:47;;;;;;;55.20;49.65;;;;;;;7.16;57.82;95885.03;5137395;27;20221;-66
2022/03/28 05:09:14;;;;;;;49.95;44.58;;;;;;;7.29;57.32;95888.81;5118232;28;20334;-64
2022/03/28 05:11:40;;;;;;;47.47;40.15;;;;;;;7.39;56.62;95890.50;5118132;28;20196;-64
2022/03/28 05:14:07;;;;;;;34.58;29.55;;;;;;;7.46;56.79;95890.88;5118321;28;20194;-64
2022/03/28 05:16:34;;;;;;;39.03;31.00;;;;;;;7.58;56.52;95893.06;5117844;28;20196;-64
2022/03/28 05:19:01;;;;;;;30.33;25.98;;;;;;;7.64;55.78;95902.78;5133879;27;20217;-64
2022/03/28 05:21:28;;;;;;;31.33;24.63;;;;;;;7.72;55.43;95908.31;5116980;28;20184;-65
2022/03/28 05:23:56;;;;;;;25.40;21.85;;;;;;;7.69;54.17;95905.41;5116751;28;20200;-64
2022/03/28 05:26:23;;;;;;;25.40;21.25;;;;;;;7.64;54.87;95906.34;5117762;28;20239;-65
2022/03/28 05:28:50;;;;;;;27.45;21.92;;;;;;;7.57;55.06;95905.16;5117778;28;20195;-65
2022/03/28 05:31:17;;;;;;;26.38;22.33;;;;;;;7.50;55.52;95905.59;5118032;28;20212;-65
2022/03/28 05:33:44;;;;;;;28.58;25.55;;;;;;;7.51;55.14;95901.72;5117759;28;20211;-65
2022/03/28 05:36:11;;;;;;;26.02;22.65;;;;;;;7.49;55.13;95904.00;5117383;28;20176;-65
2022/03/28 05:38:38;;;;;;;25.23;22.30;;;;;;;7.51;54.44;95907.22;5116806;28;20294;-65
2022/03/28 05:41:07;;;;;;;23.65;21.05;;;;;;;7.55;55.52;95908.22;5117585;28;20215;-66
2022/03/28 05:43:35;;;;;;;24.05;21.05;;;;;;;7.58;56.23;95907.59;5116645;28;20200;-65
2022/03/28 05:46:02;;;;;;;24.90;21.88;;;;;;;7.65;55.06;95912.63;5115678;28;20211;-65
2022/03/28 05:48:29;;;;;;;22.13;19.80;;;;;;;7.68;55.84;95912.03;5116870;28;20223;-66
2022/03/28 05:50:56;;;;;;;24.02;21.48;;;;;;;7.73;54.25;95914.63;5116069;28;20253;-66
2022/03/28 05:53:23;;;;;;;24.35;21.65;;;;;;;7.76;55.33;95913.19;5116748;28;20180;-66
2022/03/28 05:55:50;;;;;;;25.23;21.52;;;;;;;7.76;55.14;95910.44;5116274;28;20290;-66
2022/03/28 05:58:18;;;;;;;22.25;19.88;;;;;;;7.78;55.23;95921.94;5116641;28;20294;-65
2022/03/28 06:00:45;;;;;;;22.38;20.08;;;;;;;7.82;55.32;95910.00;5116413;28;20215;-65
2022/03/28 06:03:12;;;;;;;23.48;20.75;;;;;;;7.88;55.18;95910.66;5116156;28;20195;-66
2022/03/28 06:05:39;;;;;;;23.27;20.50;;;;;;;7.94;55.61;95914.91;5116022;28;20219;-66
2022/03/28 06:08:07;;;;;;;24.05;20.65;;;;;;;8.03;54.74;95914.97;5139279;27;20714;-66
2022/03/28 06:10:34;;;;;;;25.10;22.42;;;;;;;8.11;54.64;95909.50;5158278;27;20186;-66
2022/03/28 06:13:01;;;;;;;24.42;20.90;;;;;;;8.19;55.14;95916.16;5139587;27;20202;-66
2022/03/28 06:15:30;;;;;;;25.50;21.33;;;;;;;8.23;55.10;95911.66;5140036;27;20191;-66
2022/03/28 06:17:57;;;;;;;23.55;20.95;;;;;;;8.29;54.95;95917.81;5140088;27;20187;-65
2022/03/28 06:20:23;;;;;;;20.75;18.55;;;;;;;8.35;54.28;95913.78;5140168;27;20206;-65
2022/03/28 06:22:50;;;;;;;22.83;19.85;;;;;;;8.43;54.50;95910.31;5158041;27;20171;-65
2022/03/28 06:25:19;;;;;;;24.73;19.52;;;;;;;8.48;53.84;95915.66;5158292;27;20259;-66
2022/03/28 06:27:46;;;;;;;19.83;17.85;;;;;;;8.54;54.54;95919.88;5139674;27;20560;-66
2022/03/28 06:30:13;;;;;;;20.65;18.42;;;;;;;8.62;55.50;95912.78;5140035;27;20247;-66
2022/03/28 06:32:41;;;;;;;21.00;18.95;;;;;;;8.72;54.59;95919.94;5139701;27;20625;-65
2022/03/28 06:35:09;;;;;;;24.27;21.85;;;;;;;8.85;54.18;95916.22;5157472;27;20251;-65
2022/03/28 06:37:36;;;;;;;26.77;23.90;;;;;;;8.96;54.27;95909.28;5157838;27;20227;-65
2022/03/28 06:40:04;;;;;;;25.92;23.30;;;;;;;9.01;54.61;95909.13;5139661;27;20244;-65
2022/03/28 06:42:32;;;;;;;25.48;22.92;;;;;;;9.02;54.80;95915.44;5139112;27;20190;-65
2022/03/28 06:44:59;;;;;;;23.90;21.40;;;;;;;9.07;55.30;95924.31;5139009;27;20542;-65
2022/03/28 06:47:26;;;;;;;26.60;21.60;;;;;;;9.18;52.90;95916.56;5157236;27;20202;-65
2022/03/28 06:49:54;;;;;;;19.50;17.35;;;;;;;9.20;52.97;95911.56;5139295;27;20202;-65
2022/03/28 06:52:21;;;;;;;19.92;16.65;;;;;;;9.29;53.55;95919.81;5157685;27;20278;-68
2022/03/28 06:54:48;;;;;;;18.42;16.45;;;;;;;9.36;53.31;95923.69;5138725;27;20456;-64
2022/03/28 06:57:16;;;;;;;17.50;15.70;;;;;;;9.45;53.20;95915.44;5138521;27;20193;-64
2022/03/28 06:59:43;;;;;;;17.50;14.63;;;;;;;9.52;52.69;95907.50;5157138;27;20655;-64
2022/03/28 07:02:10;;;;;;;18.10;16.23;;;;;;;9.60;52.26;95905.88;5139014;27;20206;-64
2022/03/28 07:04:37;;;;;;;17.95;16.05;;;;;;;9.64;51.84;95918.66;5157406;27;20198;-65
2022/03/28 07:07:05;;;;;;;18.75;16.48;;;;;;;9.70;51.99;95911.03;5138959;27;20214;-64
2022/03/28 07:09:32;;;;;;;18.65;16.40;;;;;;;9.80;50.61;95912.63;5139095;27;20198;-64
2022/03/28 07:11:59;;;;;;;22.20;16.90;;;;;;;9.85;51.65;95915.22;5139105;27;20186;-64
2022/03/28 07:14:26;;;;;;;20.60;17.10;;;;;;;9.87;51.41;95912.94;5139514;27;20293;-64
2022/03/28 07:16:53;;;;;;;19.88;17.92;;;;;;;9.88;51.82;95917.34;5157237;27;20182;-64
2022/03/28 07:19:20;;;;;;;21.20;18.85;;;;;;;9.93;52.96;95911.63;5139228;27;20201;-64
2022/03/28 07:21:47;;;;;;;21.95;19.70;;;;;;;10.04;50.87;95915.66;5139226;27;20231;-67
2022/03/28 07:24:17;;;;;;;19.23;17.23;;;;;;;10.19;48.94;95910.75;5139074;27;20226;-67
2022/03/28 07:26:48;;;;;;;19.55;16.90;;;;;;;10.30;49.88;95912.84;5157028;27;20206;-65
2022/03/28 07:29:17;;;;;;;20.52;17.63;;;;;;;10.36;51.56;95907.97;5139079;27;20218;-65
2022/03/28 07:31:44;;;;;;;17.83;15.93;;;;;;;10.42;51.21;95908.56;5139158;27;20244;-64
2022/03/28 07:36:55;;;;;;;16.42;14.50;;;;;;;10.74;50.22;95912.63;5138532;27;20186;-64
2022/03/28 07:39:24;;;;;;;16.45;14.68;;;;;;;10.87;49.38;95906.06;5138617;27;20194;-65
2022/03/28 07:41:51;;;;;;;16.23;14.48;;;;;;;11.00;49.47;95904.19;5156966;27;20279;-65
2022/03/28 07:44:18;;;;;;;16.42;14.55;;;;;;;11.12;48.41;95914.50;5138977;27;20505;-64
2022/03/28 07:46:46;;;;;;;16.73;14.73;;;;;;;11.22;48.72;95903.03;5156797;27;20189;-65
2022/03/28 07:49:13;;;;;;;16.35;14.10;;;;;;;11.30;48.30;95908.50;5139253;27;20205;-65
2022/03/28 07:51:40;;;;;;;14.85;13.32;;;;;;;11.39;48.21;95902.91;5138864;27;20202;-65
2022/03/28 07:54:07;;;;;;;16.27;14.60;;;;;;;11.50;47.89;95906.06;5138650;27;20222;-65
2022/03/28 07:56:35;;;;;;;16.10;13.93;;;;;;;11.62;48.82;95897.84;5138796;27;20267;-65
2022/03/28 07:59:02;;;;;;;14.02;12.63;;;;;;;11.76;49.29;95900.28;5138148;27;20712;-65
2022/03/28 08:01:29;;;;;;;17.40;12.43;;;;;;;11.87;48.44;95895.97;5138672;27;20229;-65
2022/03/28 08:03:56;;;;;;;14.98;12.50;;;;;;;11.93;48.37;95894.63;5138474;27;20227;-65
2022/03/28 08:06:23;;;;;;;17.13;14.13;;;;;;;11.99;47.53;95890.50;5138585;27;20186;-65
2022/03/28 08:08:49;;;;;;;15.27;13.45;;;;;;;12.07;47.09;95891.56;5135589;27;20239;-65
2022/03/28 08:11:17;;;;;;;15.55;13.93;;;;;;;12.14;47.31;95894.56;5138645;27;20194;-65
2022/03/28 08:13:45;;;;;;;15.52;13.25;;;;;;;12.24;47.91;95890.56;5138908;27;20195;-65
2022/03/28 08:16:13;;;;;;;14.25;12.85;;;;;;;12.26;46.54;95883.50;5138877;27;20195;-65
2022/03/28 08:18:41;;;;;;;13.45;12.05;;;;;;;12.32;45.83;95888.84;5139720;27;20171;-65
2022/03/28 08:21:09;;;;;;;16.00;12.27;;;;;;;12.43;46.28;95882.50;5122057;27;20248;-65
2022/03/28 08:23:36;;;;;;;13.65;12.35;;;;;;;12.57;46.69;95871.09;5121561;27;20203;-65
2022/03/28 08:26:04;;;;;;;14.50;12.95;;;;;;;12.69;46.00;95873.03;5121288;27;20202;-65
2022/03/28 08:28:31;;;;;;;15.90;13.48;;;;;;;12.83;46.71;95864.38;5139459;27;20207;-65
2022/03/28 08:30:59;;;;;;;15.93;13.75;;;;;;;12.97;46.70;95867.59;5139402;27;20190;-64
2022/03/28 08:33:26;;;;;;;16.25;13.32;;;;;;;13.08;46.69;95867.94;5121350;27;20218;-65
2022/03/28 08:35:53;;;;;;;14.13;12.15;;;;;;;13.10;45.49;95858.09;5122220;27;20210;-65
2022/03/28 08:38:20;;;;;;;14.85;13.25;;;;;;;13.21;46.03;95850.09;5138497;27;20444;-65
2022/03/28 08:40:48;;;;;;;14.13;12.73;;;;;;;13.32;44.71;95853.22;5139243;27;20194;-65
2022/03/28 08:43:18;;;;;;;12.25;10.95;;;;;;;13.44;45.02;95848.44;5138804;27;20508;-65
2022/03/28 08:45:45;;;;;;;17.80;13.00;;;;;;;13.62;44.98;95842.59;5139220;27;20207;-64
2022/03/28 08:48:14;;;;;;;15.68;13.95;;;;;;;13.80;44.67;95843.06;5137940;27;20241;-64
2022/03/28 08:50:42;;;;;;;14.63;12.90;;;;;;;13.86;43.97;95831.38;5138051;27;20241;-64
2022/03/28 08:53:09;;;;;;;14.90;12.55;;;;;;;13.95;44.22;95828.44;5138631;27;20630;-64
2022/03/28 08:55:36;;;;;;;15.77;14.27;;;;;;;14.02;43.05;95820.31;5137645;27;20300;-64
2022/03/28 08:58:03;;;;;;;15.23;13.70;;;;;;;14.06;43.53;95823.97;5138779;27;20217;-64
2022/03/28 09:00:30;;;;;;;15.00;13.05;;;;;;;13.95;42.57;95818.16;5138870;27;20197;-65
2022/03/28 09:02:58;;;;;;;17.05;14.25;;;;;;;13.91;42.57;95817.25;5139375;27;20268;-65
2022/03/28 09:05:32;;;;;;;18.17;14.20;;;;;;;13.99;42.17;95811.91;5138909;27;20183;-65
2022/03/28 09:07:59;;;;;;;16.92;14.77;;;;;;;14.02;41.39;95809.22;5137382;27;20637;-66
2022/03/28 09:10:28;;;;;;;17.13;14.48;;;;;;;14.16;43.70;95801.25;5138590;27;20210;-66
2022/03/28 09:13:00;;;;;;;16.75;15.05;;;;;;;14.14;41.85;95797.22;5138526;27;20190;-66
2022/03/28 09:15:27;;;;;;;18.02;15.00;;;;;;;14.15;42.57;95809.94;5137767;27;20278;-65
2022/03/28 09:17:58;;;;;;;16.83;14.98;;;;;;;14.03;41.57;95791.41;5138148;27;20185;-64
2022/03/28 09:20:26;;;;;;;18.40;14.65;;;;;;;13.97;42.24;95799.19;5136675;27;20199;-64
2022/03/28 09:22:54;;;;;;;19.73;14.80;;;;;;;14.02;42.17;95789.00;5138294;27;20247;-65
2022/03/28 09:25:21;;;;;;;18.17;15.35;;;;;;;14.11;42.99;95792.38;5137156;27;20191;-64
2022/03/28 09:27:49;;;;;;;16.50;14.80;;;;;;;14.11;41.98;95784.88;5137475;27;20245;-64
2022/03/28 09:30:17;;;;;;;16.80;15.13;;;;;;;14.19;42.65;95780.31;5137620;27;20210;-64
2022/03/28 09:32:46;;;;;;;18.15;14.95;;;;;;;14.36;42.81;95779.13;5138273;27;20249;-64
2022/03/28 09:35:19;;;;;;;18.17;16.13;;;;;;;14.57;42.39;95765.00;5138053;27;20207;-65
2022/03/28 09:37:58;;;;;;;18.33;16.48;;;;;;;14.71;42.56;95768.09;5137152;27;20207;-65
2022/03/28 09:40:36;;;;;;;17.80;15.98;;;;;;;14.84;41.71;95763.19;5138096;27;20252;-65
2022/03/28 09:43:04;;;;;;;18.38;15.73;;;;;;;15.00;41.98;95761.19;5137931;27;20179;-65
2022/03/28 09:45:33;;;;;;;25.55;17.17;;;;;;;15.17;41.66;95752.38;5137671;27;20427;-65
2022/03/28 09:48:02;;;;;;;19.35;15.95;;;;;;;15.26;40.14;95746.63;5135744;27;20466;-65
2022/03/28 09:50:34;;;;;;;17.80;15.90;;;;;;;15.37;39.87;95741.28;5137206;27;20434;-65
2022/03/28 09:53:13;;;;;;;17.98;15.18;;;;;;;15.58;39.70;95738.09;5137169;27;20187;-65
2022/03/28 09:56:05;;;;;;;17.98;15.18;;;;;;;15.86;40.31;95730.28;5138220;27;20179;-65
2022/03/28 09:58:38;;;;;;;17.77;15.90;;;;;;;15.95;39.27;95724.47;5117936;27;20231;-65
2022/03/28 10:01:07;;;;;;;18.83;16.85;;;;;;;16.03;39.78;95733.75;5137329;27;20431;-67
2022/03/28 10:03:35;;;;;;;19.45;15.68;;;;;;;16.05;38.13;95723.03;5137306;27;20187;-66
2022/03/28 10:06:02;;;;;;;17.92;16.10;;;;;;;16.12;38.78;95720.38;5137526;27;20233;-66
2022/03/28 10:08:31;;;;;;;18.53;16.03;;;;;;;16.18;39.32;95716.09;5151165;27;20434;-66
2022/03/28 10:10:59;;;;;;;18.95;15.50;;;;;;;16.20;38.35;95707.41;5158242;27;20526;-66
2022/03/28 10:13:29;;;;;;;17.40;15.50;;;;;;;16.25;38.49;95699.50;5139696;27;20289;-66
2022/03/28 10:15:56;;;;;;;18.38;14.32;;;;;;;16.32;38.00;95696.03;5157922;27;20197;-66
2022/03/28 10:18:23;;;;;;;17.40;15.52;;;;;;;16.26;37.79;95691.97;5158463;27;20198;-66
2022/03/28 10:20:54;;;;;;;17.88;15.20;;;;;;;16.10;37.82;95681.78;5157740;27;20206;-66
2022/03/28 10:23:24;;;;;;;18.77;15.63;;;;;;;16.06;38.00;95682.94;5140051;27;20285;-66
2022/03/28 10:25:54;;;;;;;18.40;15.25;;;;;;;16.05;38.44;95681.28;5140120;27;20237;-66
2022/03/28 10:28:21;;;;;;;17.67;15.40;;;;;;;16.17;37.58;95661.63;5139651;27;20234;-66
2022/03/28 10:30:48;;;;;;;21.13;15.82;;;;;;;16.32;38.60;95665.44;5157701;27;20243;-66
2022/03/28 10:33:17;;;;;;;18.10;15.18;;;;;;;16.40;36.69;95660.75;5139179;27;20289;-66
2022/03/28 10:35:57;;;;;;;19.58;15.25;;;;;;;16.59;37.38;95649.47;5157454;27;20504;-67
2022/03/28 10:38:24;;;;;;;17.75;15.85;;;;;;;16.64;36.52;95651.94;5139222;27;20198;-66
2022/03/28 10:40:57;;;;;;;21.23;14.68;;;;;;;16.67;37.74;95644.84;5157293;27;20217;-67
2022/03/28 10:43:26;;;;;;;17.55;15.63;;;;;;;16.59;36.44;95641.13;5157869;27;20179;-67
2022/03/28 10:45:56;;;;;;;16.77;15.00;;;;;;;16.44;37.02;95637.34;5157846;27;20197;-67
2022/03/28 10:48:37;;;;;;;18.45;15.10;;;;;;;16.34;36.58;95633.25;5157410;27;20614;-67
2022/03/28 10:51:06;;;;;;;17.40;15.30;;;;;;;16.27;36.23;95626.78;5157516;27;20196;-66
2022/03/28 10:53:37;;;;;;;19.15;15.02;;;;;;;16.31;38.14;95628.44;5139419;27;20200;-67
2022/03/28 10:56:08;;;;;;;20.23;15.13;;;;;;;16.38;36.89;95627.75;5157112;27;20208;-66
2022/03/28 10:58:38;;;;;;;16.77;14.32;;;;;;;16.48;36.66;95621.50;5139144;27;20194;-66
2022/03/28 11:01:28;;;;;;;17.73;14.55;;;;;;;16.54;37.25;95619.19;5139097;27;20223;-66
2022/03/28 11:04:01;;;;;;;22.50;14.82;;;;;;;16.58;36.40;95612.47;5139103;27;20229;-66
2022/03/28 11:07:00;;;;;;;18.25;14.82;;;;;;;16.66;36.45;95598.66;5157267;27;20243;-65
2022/03/28 11:10:01;;;;;;;17.85;15.52;;;;;;;16.68;36.09;95604.66;5138957;27;20224;-66
2022/03/28 11:12:32;;;;;;;20.80;15.48;;;;;;;16.63;35.78;95600.22;5138783;27;20198;-66
2022/03/28 11:15:01;;;;;;;18.60;14.73;;;;;;;16.54;35.69;95596.91;5157085;27;20183;-64
2022/03/28 11:17:30;;;;;;;18.35;15.93;;;;;;;16.41;35.73;95595.53;5139215;27;20222;-66
2022/03/28 11:20:00;;;;;;;19.30;15.48;;;;;;;16.33;36.41;95600.22;5139186;27;20199;-66
2022/03/28 11:22:44;;;;;;;17.73;14.95;;;;;;;16.32;35.87;95591.06;5157348;27;20238;-66
2022/03/28 11:25:41;;;;;;;19.40;15.27;;;;;;;16.31;36.28;95588.66;5157112;27;20182;-65
2022/03/28 11:28:18;;;;;;;17.63;14.45;;;;;;;16.26;36.13;95577.84;5139085;27;20241;-65
2022/03/28 11:30:55;;;;;;;19.27;14.35;;;;;;;16.26;36.59;95578.66;5138949;27;20209;-65